Time;durP1;ratioP1;P1;durP2;ratioP2;P2;SDS_P1;SDS_P2;PMS_P1;PMS_P2;Temp;Humidity;BMP_temperature;BMP_pressure;BME280_temperature;BME280_humidity;BME280_pressure;Samples;Min_cycle;Max_cycle;Signal;HPM_P1;HPM_P2
2021/09/07 00:00:49;;;;;;;;;;;;;;;;;;5077997;28;19917;-79
2021/09/07 00:03:14;;;;;;;;;;;;;;;;;;5064429;28;19919;-79
2021/09/07 00:05:39;;;;;;;;;;;;;;;;;;5079632;28;20263;-80
2021/09/07 00:08:04;;;;;;;;;;;;;;;;;;5046963;28;20274;-79
2021/09/07 00:10:30;;;;;;;;;;;;;;;;;;5055199;28;19916;-79
2021/09/07 00:12:55;;;;;;;;;;;;;;;;;;5061489;28;20023;-79
2021/09/07 00:15:21;;;;;;;;;;;;;;;;;;5077238;28;20434;-79
2021/09/07 00:17:46;;;;;;;;;;;;;;;;;;5045284;28;19919;-79
2021/09/07 00:20:12;;;;;;;;;;;;;;;;;;5063009;28;19909;-79
2021/09/07 00:22:37;;;;;;;;;;;;;;;;;;5061036;28;19952;-79
2021/09/07 00:25:05;;;;;;;;;;;;;;;;;;5077879;28;19916;-79
2021/09/07 00:27:31;;;;;;;;;;;;;;;;;;5062805;28;19912;-79
2021/09/07 00:29:56;;;;;;;;;;;;;;;;;;5060629;28;20436;-79
2021/09/07 00:32:21;;;;;;;;;;;;;;;;;;5081551;28;19999;-79
2021/09/07 00:34:47;;;;;;;;;;;;;;;;;;5055181;28;19966;-79
2021/09/07 00:37:12;;;;;;;;;;;;;;;;;;5071088;28;20683;-78
2021/09/07 00:39:37;;;;;;;;;;;;;;;;;;5061140;28;19912;-79
2021/09/07 00:42:03;;;;;;;;;;;;;;;;;;5078179;28;19916;-78
2021/09/07 00:44:28;;;;;;;;;;;;;;;;;;5046051;28;20391;-79
2021/09/07 00:46:54;;;;;;;;;;;;;;;;;;5054766;28;20286;-79
2021/09/07 00:49:20;;;;;;;;;;;;;;;;;;5061933;28;19958;-79
2021/09/07 00:51:46;;;;;;;;;;;;;;;;;;5046348;28;19916;-79
2021/09/07 00:54:11;;;;;;;;;;;;;;;;;;5070840;28;19938;-79
2021/09/07 00:56:37;;;;;;;;;;;;;;;;;;5078792;28;19908;-79
2021/09/07 00:59:02;;;;;;;;;;;;;;;;;;5060224;28;20529;-79
2021/09/07 01:01:27;;;;;;;;;;;;;;;;;;5060289;28;20334;-79
2021/09/07 01:03:53;;;;;;;;;;;;;;;;;;5079349;28;19912;-79
2021/09/07 01:06:18;;;;;;;;;;;;;;;;;;5060488;28;20306;-79
2021/09/07 01:08:43;;;;;;;;;;;;;;;;;;5035391;28;19977;-79
2021/09/07 01:11:09;;;;;;;;;;;;;;;;;;5071461;28;19927;-79
2021/09/07 01:13:34;;;;;;;;;;;;;;;;;;5069107;28;19943;-80
2021/09/07 01:16:00;;;;;;;;;;;;;;;;;;5069131;28;20366;-79
2021/09/07 01:18:25;;;;;;;;;;;;;;;;;;5073731;28;19912;-79
2021/09/07 01:20:51;;;;;;;;;;;;;;;;;;5035389;28;20282;-79
2021/09/07 01:23:16;;;;;;;;;;;;;;;;;;5035938;28;19999;-79
2021/09/07 01:25:42;;;;;;;;;;;;;;;;;;5053023;28;19909;-79
2021/09/07 01:28:12;;;;;;;;;;;;;;;;;;5055080;28;20050;-79
2021/09/07 01:30:38;;;;;;;;;;;;;;;;;;5071671;28;19945;-79
2021/09/07 01:33:03;;;;;;;;;;;;;;;;;;5071759;28;19916;-79
2021/09/07 01:35:28;;;;;;;;;;;;;;;;;;5071682;28;19974;-79
2021/09/07 01:37:53;;;;;;;;;;;;;;;;;;5070973;28;19958;-79
2021/09/07 01:40:19;;;;;;;;;;;;;;;;;;5055085;28;19967;-79
2021/09/07 01:42:44;;;;;;;;;;;;;;;;;;5071724;28;19908;-79
2021/09/07 01:45:10;;;;;;;;;;;;;;;;;;5055197;28;20074;-79
2021/09/07 01:47:37;;;;;;;;;;;;;;;;;;5071228;28;19912;-79
2021/09/07 01:50:03;;;;;;;;;;;;;;;;;;5055120;28;19962;-79
2021/09/07 01:52:28;;;;;;;;;;;;;;;;;;5071399;28;20431;-79
2021/09/07 01:54:53;;;;;;;;;;;;;;;;;;5051308;28;19955;-79
2021/09/07 01:57:19;;;;;;;;;;;;;;;;;;5071321;28;19916;-79
2021/09/07 01:59:44;;;;;;;;;;;;;;;;;;5071396;28;19908;-79
2021/09/07 02:02:09;;;;;;;;;;;;;;;;;;5071547;28;19965;-79
2021/09/07 02:04:34;;;;;;;;;;;;;;;;;;5071240;28;20341;-79
2021/09/07 02:07:00;;;;;;;;;;;;;;;;;;5069556;28;19957;-79
2021/09/07 02:09:26;;;;;;;;;;;;;;;;;;5071037;28;19912;-79
2021/09/07 02:11:52;;;;;;;;;;;;;;;;;;5071602;28;19908;-79
2021/09/07 02:14:17;;;;;;;;;;;;;;;;;;5070831;28;19909;-79
2021/09/07 02:16:43;;;;;;;;;;;;;;;;;;5071210;28;19944;-79
2021/09/07 02:19:08;;;;;;;;;;;;;;;;;;5071137;28;19912;-79
2021/09/07 02:21:33;;;;;;;;;;;;;;;;;;5071247;28;19995;-80
2021/09/07 02:23:59;;;;;;;;;;;;;;;;;;5071126;28;20028;-79
2021/09/07 02:26:24;;;;;;;;;;;;;;;;;;5070990;28;19970;-80
2021/09/07 02:28:49;;;;;;;;;;;;;;;;;;5054422;28;19912;-79
2021/09/07 02:31:15;;;;;;;;;;;;;;;;;;5070818;28;19931;-79
2021/09/07 02:33:40;;;;;;;;;;;;;;;;;;5070971;28;19912;-79
2021/09/07 02:36:05;;;;;;;;;;;;;;;;;;5070667;28;19912;-79
2021/09/07 02:38:30;;;;;;;;;;;;;;;;;;5070589;28;19999;-79
2021/09/07 02:40:57;;;;;;;;;;;;;;;;;;5070895;28;20385;-79
2021/09/07 02:43:23;;;;;;;;;;;;;;;;;;5070663;28;19913;-79
2021/09/07 02:45:49;;;;;;;;;;;;;;;;;;5070999;28;20401;-79
2021/09/07 02:48:14;;;;;;;;;;;;;;;;;;5054111;28;20282;-79
2021/09/07 02:50:39;;;;;;;;;;;;;;;;;;5070656;28;19965;-79
2021/09/07 02:53:05;;;;;;;;;;;;;;;;;;5053734;28;20005;-79
2021/09/07 02:55:30;;;;;;;;;;;;;;;;;;5070865;28;19909;-79
2021/09/07 02:57:55;;;;;;;;;;;;;;;;;;5037213;28;19913;-79
2021/09/07 03:00:21;;;;;;;;;;;;;;;;;;5030674;28;19924;-79
2021/09/07 03:02:46;;;;;;;;;;;;;;;;;;5054184;28;19908;-79
2021/09/07 03:05:11;;;;;;;;;;;;;;;;;;5070852;28;19916;-79
2021/09/07 03:07:37;;;;;;;;;;;;;;;;;;5069913;28;20007;-79
2021/09/07 03:10:02;;;;;;;;;;;;;;;;;;5070616;28;19912;-79
2021/09/07 03:12:27;;;;;;;;;;;;;;;;;;5070661;28;20297;-80
2021/09/07 03:14:53;;;;;;;;;;;;;;;;;;5070708;28;19916;-79
2021/09/07 03:17:18;;;;;;;;;;;;;;;;;;5053843;28;19912;-79
2021/09/07 03:19:43;;;;;;;;;;;;;;;;;;5070541;28;19935;-80
2021/09/07 03:22:09;;;;;;;;;;;;;;;;;;5070212;28;19916;-79
2021/09/07 03:24:34;;;;;;;;;;;;;;;;;;5053196;28;19912;-79
2021/09/07 03:26:59;;;;;;;;;;;;;;;;;;5070769;28;19916;-79
2021/09/07 03:29:25;;;;;;;;;;;;;;;;;;5071010;28;19915;-80
2021/09/07 03:31:50;;;;;;;;;;;;;;;;;;5070429;28;19958;-79
2021/09/07 03:34:15;;;;;;;;;;;;;;;;;;5070143;28;19912;-79
2021/09/07 03:36:41;;;;;;;;;;;;;;;;;;5069728;28;19912;-79
2021/09/07 03:39:07;;;;;;;;;;;;;;;;;;5070328;28;19923;-79
2021/09/07 03:41:32;;;;;;;;;;;;;;;;;;5070601;28;19908;-79
2021/09/07 03:43:57;;;;;;;;;;;;;;;;;;5070211;28;19912;-79
2021/09/07 03:46:23;;;;;;;;;;;;;;;;;;5070382;28;20007;-79
2021/09/07 03:48:48;;;;;;;;;;;;;;;;;;5070090;28;19912;-79
2021/09/07 03:51:14;;;;;;;;;;;;;;;;;;5069771;28;19912;-79
2021/09/07 03:53:39;;;;;;;;;;;;;;;;;;5069390;28;19920;-79
2021/09/07 03:56:06;;;;;;;;;;;;;;;;;;5071782;28;20011;-79
2021/09/07 03:58:32;;;;;;;;;;;;;;;;;;5070291;28;19956;-79
2021/09/07 04:00:57;;;;;;;;;;;;;;;;;;5073218;28;19951;-79
2021/09/07 04:03:22;;;;;;;;;;;;;;;;;;5073645;28;19940;-79
2021/09/07 04:05:48;;;;;;;;;;;;;;;;;;5056318;28;19908;-80
2021/09/07 04:08:14;;;;;;;;;;;;;;;;;;5056404;28;19920;-80
2021/09/07 04:10:39;;;;;;;;;;;;;;;;;;5073784;28;19962;-79
2021/09/07 04:13:05;;;;;;;;;;;;;;;;;;5073908;28;19923;-79
2021/09/07 04:15:30;;;;;;;;;;;;;;;;;;5073637;28;20010;-79
2021/09/07 04:17:57;;;;;;;;;;;;;;;;;;5073815;28;20347;-79
2021/09/07 04:20:23;;;;;;;;;;;;;;;;;;5056254;28;20000;-79
2021/09/07 04:22:48;;;;;;;;;;;;;;;;;;5073555;28;19924;-79
2021/09/07 04:25:14;;;;;;;;;;;;;;;;;;5056733;28;19913;-79
2021/09/07 04:27:39;;;;;;;;;;;;;;;;;;5073187;28;19912;-79
2021/09/07 04:30:05;;;;;;;;;;;;;;;;;;5073255;28;19966;-79
2021/09/07 04:32:31;;;;;;;;;;;;;;;;;;5073378;28;19908;-79
2021/09/07 04:34:56;;;;;;;;;;;;;;;;;;5073069;28;19912;-79
2021/09/07 04:37:21;;;;;;;;;;;;;;;;;;5072783;28;19927;-79
2021/09/07 04:39:50;;;;;;;;;;;;;;;;;;5072969;28;19966;-80
2021/09/07 04:42:16;;;;;;;;;;;;;;;;;;5073724;28;19915;-79
2021/09/07 04:44:41;;;;;;;;;;;;;;;;;;5056446;28;19912;-79
2021/09/07 04:47:06;;;;;;;;;;;;;;;;;;5072510;28;20003;-79
2021/09/07 04:49:32;;;;;;;;;;;;;;;;;;5052140;28;20015;-79
2021/09/07 04:51:57;;;;;;;;;;;;;;;;;;5019502;28;19916;-79
2021/09/07 04:54:23;;;;;;;;;;;;;;;;;;5043398;28;19916;-79
2021/09/07 04:56:48;;;;;;;;;;;;;;;;;;5072486;28;19922;-80
2021/09/07 04:59:13;;;;;;;;;;;;;;;;;;5072791;28;19920;-79
2021/09/07 05:01:39;;;;;;;;;;;;;;;;;;5072495;28;19912;-79
2021/09/07 05:04:04;;;;;;;;;;;;;;;;;;5072255;28;20008;-80
2021/09/07 05:06:29;;;;;;;;;;;;;;;;;;5071795;28;19916;-79
2021/09/07 05:08:54;;;;;;;;;;;;;;;;;;5072717;28;19928;-78
2021/09/07 05:11:20;;;;;;;;;;;;;;;;;;5071398;28;19935;-79
2021/09/07 05:13:45;;;;;;;;;;;;;;;;;;5073038;28;19915;-79
2021/09/07 05:16:10;;;;;;;;;;;;;;;;;;5072405;28;19908;-79
2021/09/07 05:18:36;;;;;;;;;;;;;;;;;;5072323;28;20022;-79
2021/09/07 05:21:01;;;;;;;;;;;;;;;;;;5055262;28;19908;-79
2021/09/07 05:23:27;;;;;;;;;;;;;;;;;;5072428;28;19908;-79
2021/09/07 05:25:52;;;;;;;;;;;;;;;;;;5072383;28;19909;-79
2021/09/07 05:28:17;;;;;;;;;;;;;;;;;;5071990;28;19908;-79
2021/09/07 05:30:43;;;;;;;;;;;;;;;;;;5055191;28;19923;-79
2021/09/07 05:33:08;;;;;;;;;;;;;;;;;;5071964;28;19999;-79
2021/09/07 05:35:33;;;;;;;;;;;;;;;;;;5071585;28;19912;-79
2021/09/07 05:37:59;;;;;;;;;;;;;;;;;;5055176;28;19912;-80
2021/09/07 05:40:24;;;;;;;;;;;;;;;;;;5071750;28;19967;-79
2021/09/07 05:42:49;;;;;;;;;;;;;;;;;;5061936;28;19913;-79
2021/09/07 05:45:15;;;;;;;;;;;;;;;;;;5068545;28;20363;-79
2021/09/07 05:47:41;;;;;;;;;;;;;;;;;;5068387;28;19909;-79
2021/09/07 05:50:06;;;;;;;;;;;;;;;;;;5068176;28;19908;-79
2021/09/07 05:52:32;;;;;;;;;;;;;;;;;;5068627;28;19909;-79
2021/09/07 05:54:57;;;;;;;;;;;;;;;;;;5092590;28;19911;-79
2021/09/07 05:57:22;;;;;;;;;;;;;;;;;;5092279;28;19908;-79
2021/09/07 05:59:48;;;;;;;;;;;;;;;;;;5058368;28;20348;-80
2021/09/07 06:02:13;;;;;;;;;;;;;;;;;;5074109;28;19912;-79
2021/09/07 06:04:38;;;;;;;;;;;;;;;;;;5058278;28;19912;-79
2021/09/07 06:07:04;;;;;;;;;;;;;;;;;;5050513;28;19916;-79
2021/09/07 06:09:29;;;;;;;;;;;;;;;;;;5071557;28;19924;-79
2021/09/07 06:11:54;;;;;;;;;;;;;;;;;;5071566;28;20363;-79
2021/09/07 06:14:20;;;;;;;;;;;;;;;;;;5071508;28;20009;-79
2021/09/07 06:16:46;;;;;;;;;;;;;;;;;;5054474;28;19916;-79
2021/09/07 06:19:12;;;;;;;;;;;;;;;;;;5054536;28;20411;-79
2021/09/07 06:21:37;;;;;;;;;;;;;;;;;;5060807;28;20282;-79
2021/09/07 06:24:02;;;;;;;;;;;;;;;;;;5057442;28;19947;-79
2021/09/07 06:26:28;;;;;;;;;;;;;;;;;;5052673;28;19952;-79
2021/09/07 06:28:53;;;;;;;;;;;;;;;;;;5046049;28;19944;-79
2021/09/07 06:31:19;;;;;;;;;;;;;;;;;;5058754;28;19961;-79
2021/09/07 06:33:44;;;;;;;;;;;;;;;;;;5072211;28;19974;-79
2021/09/07 06:36:10;;;;;;;;;;;;;;;;;;5060571;28;20389;-79
2021/09/07 06:38:35;;;;;;;;;;;;;;;;;;5079537;28;19924;-79
2021/09/07 06:41:00;;;;;;;;;;;;;;;;;;5045887;28;19978;-80
2021/09/07 06:43:26;;;;;;;;;;;;;;;;;;5067498;28;20007;-82
2021/09/07 06:45:51;;;;;;;;;;;;;;;;;;5052096;28;19912;-79
2021/09/07 06:48:16;;;;;;;;;;;;;;;;;;5070390;28;19912;-80
2021/09/07 06:50:42;;;;;;;;;;;;;;;;;;5048152;28;19913;-80
2021/09/07 06:53:07;;;;;;;;;;;;;;;;;;5040903;28;19942;-80
2021/09/07 06:55:32;;;;;;;;;;;;;;;;;;5062993;28;20015;-80
2021/09/07 06:57:57;;;;;;;;;;;;;;;;;;5050636;28;19954;-80
2021/09/07 07:00:23;;;;;;;;;;;;;;;;;;5049846;28;19908;-80
2021/09/07 07:02:49;;;;;;;;;;;;;;;;;;5051760;28;20010;-80
2021/09/07 07:05:14;;;;;;;;;;;;;;;;;;5070617;28;19919;-80
2021/09/07 07:07:39;;;;;;;;;;;;;;;;;;5068647;28;19916;-79
2021/09/07 07:10:05;;;;;;;;;;;;;;;;;;5052567;28;19916;-80
2021/09/07 07:12:30;;;;;;;;;;;;;;;;;;5052349;28;19955;-79
2021/09/07 07:14:55;;;;;;;;;;;;;;;;;;5070437;28;19987;-79
2021/09/07 07:17:21;;;;;;;;;;;;;;;;;;5070475;28;20410;-79
2021/09/07 07:19:46;;;;;;;;;;;;;;;;;;5070317;28;19912;-80
2021/09/07 07:22:12;;;;;;;;;;;;;;;;;;5043311;28;19912;-79
2021/09/07 07:24:37;;;;;;;;;;;;;;;;;;5062271;28;20334;-80
2021/09/07 07:27:03;;;;;;;;;;;;;;;;;;5057299;28;19912;-79
2021/09/07 07:29:28;;;;;;;;;;;;;;;;;;5055701;28;19912;-79
2021/09/07 07:31:56;;;;;;;;;;;;;;;;;;5082633;28;19924;-80
2021/09/07 07:34:21;;;;;;;;;;;;;;;;;;5060349;28;19913;-79
2021/09/07 07:36:46;;;;;;;;;;;;;;;;;;5060499;28;19935;-79
2021/09/07 07:39:12;;;;;;;;;;;;;;;;;;5056272;28;19956;-80
2021/09/07 07:41:37;;;;;;;;;;;;;;;;;;5068823;28;19912;-79
2021/09/07 07:44:02;;;;;;;;;;;;;;;;;;5057214;28;19949;-79
2021/09/07 07:46:29;;;;;;;;;;;;;;;;;;5073532;28;20007;-80
2021/09/07 07:48:54;;;;;;;;;;;;;;;;;;5057244;28;20259;-80
2021/09/07 07:51:23;;;;;;;;;;;;;;;;;;5073724;28;19912;-80
2021/09/07 07:53:48;;;;;;;;;;;;;;;;;;5059557;28;19915;-81
2021/09/07 07:56:14;;;;;;;;;;;;;;;;;;5094476;28;20316;-81
2021/09/07 07:58:39;;;;;;;;;;;;;;;;;;5076735;28;19920;-81
2021/09/07 08:01:04;;;;;;;;;;;;;;;;;;5056726;28;19912;-82
2021/09/07 08:03:30;;;;;;;;;;;;;;;;;;5057041;28;19912;-84
2021/09/07 08:05:55;;;;;;;;;;;;;;;;;;5073850;28;19943;-85
2021/09/07 08:08:21;;;;;;;;;;;;;;;;;;5056726;28;19954;-83
2021/09/07 08:10:47;;;;;;;;;;;;;;;;;;5056882;28;19954;-84
2021/09/07 08:13:12;;;;;;;;;;;;;;;;;;5073418;28;19916;-83
2021/09/07 08:15:37;;;;;;;;;;;;;;;;;;5057087;28;19908;-85
2021/09/07 08:18:06;;;;;;;;;;;;;;;;;;5056848;28;19916;-84
2021/09/07 08:20:32;;;;;;;;;;;;;;;;;;5056903;28;19970;-83
2021/09/07 08:22:59;;;;;;;;;;;;;;;;;;5056440;28;19947;-85
2021/09/07 08:25:25;;;;;;;;;;;;;;;;;;5056435;28;19985;-84
2021/09/07 08:27:50;;;;;;;;;;;;;;;;;;5056113;28;20373;-85
2021/09/07 08:30:16;;;;;;;;;;;;;;;;;;5056346;28;19915;-84
2021/09/07 08:32:41;;;;;;;;;;;;;;;;;;5052215;28;19958;-84
2021/09/07 08:35:10;;;;;;;;;;;;;;;;;;5026397;28;20320;-83
2021/09/07 08:37:36;;;;;;;;;;;;;;;;;;5056384;28;19908;-79
2021/09/07 08:40:02;;;;;;;;;;;;;;;;;;5056518;28;20377;-81
2021/09/07 08:42:27;;;;;;;;;;;;;;;;;;5072930;28;20326;-80
2021/09/07 08:44:52;;;;;;;;;;;;;;;;;;5072434;28;20378;-79
2021/09/07 08:47:18;;;;;;;;;;;;;;;;;;5072683;28;20263;-80
2021/09/07 08:49:43;;;;;;;;;;;;;;;;;;5071807;28;20046;-79
2021/09/07 08:52:11;;;;;;;;;;;;;;;;;;5071544;28;19912;-79
2021/09/07 08:54:36;;;;;;;;;;;;;;;;;;5080516;28;20435;-80
2021/09/07 08:57:01;;;;;;;;;;;;;;;;;;5092833;28;19947;-79
2021/09/07 08:59:28;;;;;;;;;;;;;;;;;;5069131;28;19955;-79
2021/09/07 09:01:56;;;;;;;;;;;;;;;;;;5053241;28;19912;-81
2021/09/07 09:04:28;;;;;;;;;;;;;;;;;;5052227;28;19909;-82
2021/09/07 09:06:54;;;;;;;;;;;;;;;;;;5059214;28;19912;-80
2021/09/07 09:09:19;;;;;;;;;;;;;;;;;;5055254;28;20332;-80
2021/09/07 09:11:51;;;;;;;;;;;;;;;;;;5055017;28;19916;-78
2021/09/07 09:14:49;;;;;;;;;;;;;;;;;;5070630;28;19912;-78
2021/09/07 09:17:17;;;;;;;;;;;;;;;;;;5039211;28;19924;-79
2021/09/07 09:19:49;;;;;;;;;;;;;;;;;;5056349;28;20302;-78
2021/09/07 09:22:14;;;;;;;;;;;;;;;;;;5065535;28;19916;-79
2021/09/07 09:24:41;;;;;;;;;;;;;;;;;;5088017;28;19919;-78
2021/09/07 09:27:08;;;;;;;;;;;;;;;;;;5050770;28;20359;-79
2021/09/07 09:29:37;;;;;;;;;;;;;;;;;;5070923;28;19961;-80
2021/09/07 09:32:03;;;;;;;;;;;;;;;;;;5055101;28;19920;-81
2021/09/07 09:34:28;;;;;;;;;;;;;;;;;;5071789;28;19982;-79
2021/09/07 09:36:57;;;;;;;;;;;;;;;;;;5088773;28;20350;-79
2021/09/07 09:39:53;;;;;;;;;;;;;;;;;;5075395;28;19909;-79
2021/09/07 09:42:27;;;;;;;;;;;;;;;;;;5038393;28;19917;-79
2021/09/07 09:45:01;;;;;;;;;;;;;;;;;;5084312;28;19918;-78
2021/09/07 09:47:38;;;;;;;;;;;;;;;;;;5073041;28;19999;-79
2021/09/07 09:50:04;;;;;;;;;;;;;;;;;;5088315;28;19916;-79
2021/09/07 09:52:30;;;;;;;;;;;;;;;;;;5080389;28;19919;-79
2021/09/07 09:54:55;;;;;;;;;;;;;;;;;;5062189;28;19957;-79
2021/09/07 09:57:20;;;;;;;;;;;;;;;;;;5070853;28;19908;-79
2021/09/07 09:59:46;;;;;;;;;;;;;;;;;;5055058;28;19908;-79
2021/09/07 10:02:11;;;;;;;;;;;;;;;;;;5053978;28;20370;-79
2021/09/07 10:04:36;;;;;;;;;;;;;;;;;;5052919;28;19913;-79
2021/09/07 10:07:02;;;;;;;;;;;;;;;;;;5054214;28;19913;-79
2021/09/07 10:09:27;;;;;;;;;;;;;;;;;;5084589;28;20370;-79
2021/09/07 10:12:12;;;;;;;;;;;;;;;;;;5071047;28;19912;-79
2021/09/07 10:14:42;;;;;;;;;;;;;;;;;;5072465;28;20247;-79
2021/09/07 10:17:30;;;;;;;;;;;;;;;;;;5070248;28;20293;-79
2021/09/07 10:25:42;;;;;;;;;;;;;;;;;;5065980;28;19919;-79
2021/09/07 10:28:10;;;;;;;;;;;;;;;;;;5071279;28;19931;-79
2021/09/07 10:30:53;;;;;;;;;;;;;;;;;;5071157;28;19939;-80
2021/09/07 10:33:37;;;;;;;;;;;;;;;;;;5071342;28;19962;-80
2021/09/07 10:36:19;;;;;;;;;;;;;;;;;;5070405;28;19916;-80
2021/09/07 10:38:47;;;;;;;;;;;;;;;;;;5071053;28;19915;-79
2021/09/07 10:41:30;;;;;;;;;;;;;;;;;;5071381;28;19915;-80
2021/09/07 10:43:56;;;;;;;;;;;;;;;;;;5071922;28;19912;-79
2021/09/07 10:46:40;;;;;;;;;;;;;;;;;;5053359;28;19999;-79
2021/09/07 10:49:24;;;;;;;;;;;;;;;;;;5068054;28;19916;-80
2021/09/07 10:52:01;;;;;;;;;;;;;;;;;;5072003;28;19912;-80
2021/09/07 10:54:27;;;;;;;;;;;;;;;;;;5077559;28;19912;-80
2021/09/07 10:56:56;;;;;;;;;;;;;;;;;;5068848;28;19912;-80
2021/09/07 10:59:40;;;;;;;;;;;;;;;;;;5069802;28;19916;-80
2021/09/07 11:02:24;;;;;;;;;;;;;;;;;;5067230;28;20337;-79
2021/09/07 11:04:52;;;;;;;;;;;;;;;;;;5052398;28;19987;-83
2021/09/07 11:07:36;;;;;;;;;;;;;;;;;;5049506;28;19987;-83
2021/09/07 11:10:02;;;;;;;;;;;;;;;;;;5038310;28;19917;-81
2021/09/07 11:12:31;;;;;;;;;;;;;;;;;;5054423;28;20359;-81
2021/09/07 11:15:09;;;;;;;;;;;;;;;;;;5038145;28;19919;-81
2021/09/07 11:17:35;;;;;;;;;;;;;;;;;;5046995;28;19999;-81
2021/09/07 11:20:09;;;;;;;;;;;;;;;;;;5070907;28;20014;-81
2021/09/07 11:22:35;;;;;;;;;;;;;;;;;;5084945;28;19920;-81
2021/09/07 11:25:01;;;;;;;;;;;;;;;;;;5073923;28;20320;-81
2021/09/07 11:27:26;;;;;;;;;;;;;;;;;;5058171;28;19908;-81
2021/09/07 11:29:51;;;;;;;;;;;;;;;;;;5074261;28;19998;-81
2021/09/07 11:32:21;;;;;;;;;;;;;;;;;;5074321;28;19930;-81
2021/09/07 11:35:06;;;;;;;;;;;;;;;;;;5073971;28;20267;-82
2021/09/07 11:37:31;;;;;;;;;;;;;;;;;;5056615;28;20396;-81
2021/09/07 11:40:07;;;;;;;;;;;;;;;;;;5074243;28;19908;-81
2021/09/07 11:42:41;;;;;;;;;;;;;;;;;;5073962;28;19917;-81
2021/09/07 11:45:06;;;;;;;;;;;;;;;;;;5056844;28;19908;-81
2021/09/07 11:47:31;;;;;;;;;;;;;;;;;;5072651;28;19912;-81
2021/09/07 11:49:57;;;;;;;;;;;;;;;;;;5073526;28;19962;-81
2021/09/07 11:52:22;;;;;;;;;;;;;;;;;;5057368;28;19957;-81
2021/09/07 11:54:47;;;;;;;;;;;;;;;;;;5073231;28;20011;-81
2021/09/07 11:57:12;;;;;;;;;;;;;;;;;;5057137;28;20401;-81
2021/09/07 11:59:38;;;;;;;;;;;;;;;;;;5055460;28;19975;-81
2021/09/07 12:02:08;;;;;;;;;;;;;;;;;;5062213;28;19915;-81
2021/09/07 12:04:33;;;;;;;;;;;;;;;;;;5053599;28;19909;-80
2021/09/07 12:07:04;;;;;;;;;;;;;;;;;;5068729;28;19924;-81
2021/09/07 12:09:30;;;;;;;;;;;;;;;;;;5073827;28;19909;-80
2021/09/07 12:12:05;;;;;;;;;;;;;;;;;;5055030;28;19999;-81
2021/09/07 12:14:41;;;;;;;;;;;;;;;;;;5071893;28;19913;-81
2021/09/07 12:17:07;;;;;;;;;;;;;;;;;;5070049;28;19912;-81
2021/09/07 12:19:33;;;;;;;;;;;;;;;;;;5072497;28;19943;-81
2021/09/07 12:22:10;;;;;;;;;;;;;;;;;;5056352;28;20384;-81
2021/09/07 12:24:36;;;;;;;;;;;;;;;;;;5074486;28;19969;-81
2021/09/07 12:27:20;;;;;;;;;;;;;;;;;;5067402;28;19920;-81
2021/09/07 12:30:04;;;;;;;;;;;;;;;;;;5051926;28;20291;-81
2021/09/07 12:32:30;;;;;;;;;;;;;;;;;;5077665;28;19952;-81
2021/09/07 12:34:55;;;;;;;;;;;;;;;;;;5055700;28;19966;-81
2021/09/07 12:37:20;;;;;;;;;;;;;;;;;;5072898;28;20266;-80
2021/09/07 12:39:45;;;;;;;;;;;;;;;;;;5050640;28;19913;-80
2021/09/07 12:42:11;;;;;;;;;;;;;;;;;;5053063;28;19931;-80
2021/09/07 12:44:37;;;;;;;;;;;;;;;;;;5061170;28;19908;-80
2021/09/07 12:47:02;;;;;;;;;;;;;;;;;;5038889;28;20381;-81
2021/09/07 12:49:28;;;;;;;;;;;;;;;;;;5056288;28;19913;-81
2021/09/07 12:51:53;;;;;;;;;;;;;;;;;;5072696;28;20324;-81
2021/09/07 12:54:18;;;;;;;;;;;;;;;;;;5079604;28;19966;-81
2021/09/07 12:56:44;;;;;;;;;;;;;;;;;;5076141;28;19919;-80
2021/09/07 12:59:09;;;;;;;;;;;;;;;;;;5089315;28;19934;-79
2021/09/07 13:01:34;;;;;;;;;;;;;;;;;;5084289;28;19958;-80
2021/09/07 13:04:00;;;;;;;;;;;;;;;;;;5052591;28;20367;-80
2021/09/07 13:06:26;;;;;;;;;;;;;;;;;;5059602;28;20405;-80
2021/09/07 13:08:52;;;;;;;;;;;;;;;;;;5053148;28;19912;-80
2021/09/07 13:11:17;;;;;;;;;;;;;;;;;;5070237;28;19919;-80
2021/09/07 13:13:43;;;;;;;;;;;;;;;;;;5069004;28;19913;-80
2021/09/07 13:16:08;;;;;;;;;;;;;;;;;;5070037;28;19948;-80
2021/09/07 13:18:34;;;;;;;;;;;;;;;;;;5070795;28;19916;-80
2021/09/07 13:21:00;;;;;;;;;;;;;;;;;;5070389;28;19920;-80
2021/09/07 13:23:25;;;;;;;;;;;;;;;;;;5069922;28;20405;-80
2021/09/07 13:25:51;;;;;;;;;;;;;;;;;;5068619;28;19946;-80
2021/09/07 13:28:16;;;;;;;;;;;;;;;;;;5067264;28;20429;-80
2021/09/07 13:30:42;;;;;;;;;;;;;;;;;;5049356;28;19912;-80
2021/09/07 13:33:07;;;;;;;;;;;;;;;;;;5066044;28;19928;-80
2021/09/07 13:35:32;;;;;;;;;;;;;;;;;;5083255;28;20317;-80
2021/09/07 13:37:58;;;;;;;;;;;;;;;;;;5063775;28;19912;-80
2021/09/07 13:40:24;;;;;;;;;;;;;;;;;;5028519;28;20378;-80
2021/09/07 13:42:49;;;;;;;;;;;;;;;;;;5054966;28;20395;-80
2021/09/07 13:45:15;;;;;;;;;;;;;;;;;;5067706;28;20340;-79
2021/09/07 13:47:40;;;;;;;;;;;;;;;;;;5069441;28;19916;-80
2021/09/07 13:50:05;;;;;;;;;;;;;;;;;;5069630;28;19912;-80
2021/09/07 13:52:31;;;;;;;;;;;;;;;;;;5069811;28;20006;-80
2021/09/07 13:54:56;;;;;;;;;;;;;;;;;;5069597;28;20496;-80
2021/09/07 13:57:22;;;;;;;;;;;;;;;;;;5071237;28;19909;-80
2021/09/07 13:59:47;;;;;;;;;;;;;;;;;;5071484;28;19909;-80
2021/09/07 14:02:12;;;;;;;;;;;;;;;;;;5044316;28;20058;-80
2021/09/07 14:04:38;;;;;;;;;;;;;;;;;;5070616;28;19912;-80
2021/09/07 14:07:03;;;;;;;;;;;;;;;;;;5066700;28;19913;-80
2021/09/07 14:09:28;;;;;;;;;;;;;;;;;;5072062;28;19954;-80
2021/09/07 14:11:54;;;;;;;;;;;;;;;;;;5066458;28;20238;-81
2021/09/07 14:14:19;;;;;;;;;;;;;;;;;;5042569;28;19916;-81
2021/09/07 14:16:44;;;;;;;;;;;;;;;;;;5054022;28;19935;-81
2021/09/07 14:19:09;;;;;;;;;;;;;;;;;;5070758;28;19974;-80
2021/09/07 14:21:35;;;;;;;;;;;;;;;;;;5065454;28;19962;-80
2021/09/07 14:24:00;;;;;;;;;;;;;;;;;;5071625;28;19987;-80
2021/09/07 14:26:25;;;;;;;;;;;;;;;;;;5065670;28;19961;-80
2021/09/07 14:28:50;;;;;;;;;;;;;;;;;;5048681;28;19923;-80
2021/09/07 14:31:16;;;;;;;;;;;;;;;;;;5069659;28;20357;-80
2021/09/07 14:33:41;;;;;;;;;;;;;;;;;;5061268;28;19912;-80
2021/09/07 14:36:07;;;;;;;;;;;;;;;;;;5050664;28;19922;-80
2021/09/07 14:38:33;;;;;;;;;;;;;;;;;;5050902;28;20314;-80
2021/09/07 14:40:58;;;;;;;;;;;;;;;;;;5085411;28;19912;-80
2021/09/07 14:43:23;;;;;;;;;;;;;;;;;;5036967;28;19908;-80
2021/09/07 14:45:48;;;;;;;;;;;;;;;;;;5053777;28;19912;-80
2021/09/07 14:48:15;;;;;;;;;;;;;;;;;;5053327;28;19946;-80
2021/09/07 14:50:43;;;;;;;;;;;;;;;;;;5067155;28;19970;-80
2021/09/07 14:53:08;;;;;;;;;;;;;;;;;;5069298;28;19908;-80
2021/09/07 14:55:33;;;;;;;;;;;;;;;;;;5070283;28;19909;-80
2021/09/07 14:57:59;;;;;;;;;;;;;;;;;;5070834;28;20330;-79
2021/09/07 15:00:24;;;;;;;;;;;;;;;;;;5070585;28;19916;-79
2021/09/07 15:02:49;;;;;;;;;;;;;;;;;;5070796;28;19912;-80
2021/09/07 15:05:14;;;;;;;;;;;;;;;;;;5070683;28;20282;-79
2021/09/07 15:07:39;;;;;;;;;;;;;;;;;;5070286;28;20009;-80
2021/09/07 15:10:05;;;;;;;;;;;;;;;;;;5053849;28;19919;-80
2021/09/07 15:12:32;;;;;;;;;;;;;;;;;;5068078;28;20327;-80
2021/09/07 15:14:57;;;;;;;;;;;;;;;;;;5050962;28;20003;-80
2021/09/07 15:17:22;;;;;;;;;;;;;;;;;;5059942;28;20007;-80
2021/09/07 15:19:48;;;;;;;;;;;;;;;;;;5070554;28;19916;-80
2021/09/07 15:22:13;;;;;;;;;;;;;;;;;;5069537;28;19912;-79
2021/09/07 15:24:39;;;;;;;;;;;;;;;;;;5034747;28;19967;-81
2021/09/07 15:27:04;;;;;;;;;;;;;;;;;;5052723;28;19916;-82
2021/09/07 15:29:30;;;;;;;;;;;;;;;;;;5069237;28;19923;-82
2021/09/07 15:31:57;;;;;;;;;;;;;;;;;;5039891;28;19983;-82
2021/09/07 15:34:22;;;;;;;;;;;;;;;;;;5041941;28;19912;-82
2021/09/07 15:36:48;;;;;;;;;;;;;;;;;;5086580;28;19913;-82
2021/09/07 15:39:14;;;;;;;;;;;;;;;;;;5070447;28;19908;-82
2021/09/07 15:41:39;;;;;;;;;;;;;;;;;;5069523;28;20321;-82
2021/09/07 15:44:04;;;;;;;;;;;;;;;;;;5053982;28;19918;-81
2021/09/07 15:46:30;;;;;;;;;;;;;;;;;;5050954;28;20394;-81
2021/09/07 15:48:55;;;;;;;;;;;;;;;;;;5070141;28;19912;-83
2021/09/07 15:51:20;;;;;;;;;;;;;;;;;;5041518;28;19916;-83
2021/09/07 15:53:47;;;;;;;;;;;;;;;;;;5052639;28;19909;-83
2021/09/07 15:56:12;;;;;;;;;;;;;;;;;;5054313;28;19912;-81
2021/09/07 15:58:38;;;;;;;;;;;;;;;;;;5085995;28;19958;-81
2021/09/07 16:01:03;;;;;;;;;;;;;;;;;;5073219;28;20362;-81
2021/09/07 16:03:29;;;;;;;;;;;;;;;;;;5055756;28;19908;-80
2021/09/07 16:05:54;;;;;;;;;;;;;;;;;;5089391;28;20006;-81
2021/09/07 16:08:19;;;;;;;;;;;;;;;;;;5054228;28;19960;-81
2021/09/07 16:10:45;;;;;;;;;;;;;;;;;;5073697;28;20011;-81
2021/09/07 16:13:10;;;;;;;;;;;;;;;;;;5056952;28;20427;-80
2021/09/07 16:15:35;;;;;;;;;;;;;;;;;;5073567;28;19995;-80
2021/09/07 16:18:03;;;;;;;;;;;;;;;;;;5073053;28;19916;-81
2021/09/07 16:20:28;;;;;;;;;;;;;;;;;;5068208;28;20362;-80
2021/09/07 16:22:54;;;;;;;;;;;;;;;;;;5073844;28;19951;-80
2021/09/07 16:25:20;;;;;;;;;;;;;;;;;;5073373;28;19956;-80
2021/09/07 16:27:45;;;;;;;;;;;;;;;;;;5060758;28;20305;-80
2021/09/07 16:30:10;;;;;;;;;;;;;;;;;;5037093;28;19912;-81
2021/09/07 16:32:36;;;;;;;;;;;;;;;;;;5056628;28;19916;-81
2021/09/07 16:35:01;;;;;;;;;;;;;;;;;;5056140;28;20289;-80
2021/09/07 16:37:27;;;;;;;;;;;;;;;;;;5073070;28;20378;-80
2021/09/07 16:39:53;;;;;;;;;;;;;;;;;;5073322;28;19931;-80
2021/09/07 16:42:18;;;;;;;;;;;;;;;;;;5073785;28;20370;-79
2021/09/07 16:44:43;;;;;;;;;;;;;;;;;;5073050;28;19908;-80
2021/09/07 16:47:09;;;;;;;;;;;;;;;;;;5072998;28;19913;-80